Time;durP1;ratioP1;P1;durP2;ratioP2;P2;SDS_P1;SDS_P2;PMS_P1;PMS_P2;Temp;Humidity;BMP_temperature;BMP_pressure;BME280_temperature;BME280_humidity;BME280_pressure;Samples;Min_cycle;Max_cycle;Signal;HPM_P1;HPM_P2
2023/03/01 00:00:53;;;;;;;29.83;20.95;;;-1.40;99.90;;;;;;4982568;28;20355;-77
2023/03/01 00:03:19;;;;;;;31.65;20.60;;;-1.40;99.90;;;;;;4986976;28;20060;-77
2023/03/01 00:05:45;;;;;;;32.45;21.38;;;-1.40;99.90;;;;;;4987765;28;20141;-77
2023/03/01 00:08:11;;;;;;;31.95;20.88;;;-1.50;99.90;;;;;;4986269;28;20054;-77
2023/03/01 00:10:37;;;;;;;36.92;21.08;;;-1.50;99.90;;;;;;4987649;28;20753;-77
2023/03/01 00:13:04;;;;;;;32.75;21.88;;;-1.50;99.90;;;;;;4979197;28;20050;-77
2023/03/01 00:15:31;;;;;;;31.02;20.90;;;-1.50;99.90;;;;;;4987479;28;20108;-77
2023/03/01 00:17:56;;;;;;;33.35;21.23;;;-1.50;99.90;;;;;;4989159;28;20093;-77
2023/03/01 00:20:22;;;;;;;34.40;21.73;;;-1.50;99.90;;;;;;4985593;28;20077;-77
2023/03/01 00:22:48;;;;;;;32.38;20.63;;;-1.60;99.90;;;;;;4987138;28;20410;-77
2023/03/01 00:25:13;;;;;;;30.42;20.35;;;-1.60;99.90;;;;;;4987728;28;20076;-77
2023/03/01 00:27:39;;;;;;;32.95;19.65;;;-1.60;99.90;;;;;;4987253;28;20112;-77
2023/03/01 00:30:05;;;;;;;34.20;20.20;;;-1.60;99.90;;;;;;4986885;28;20054;-77
2023/03/01 00:32:31;;;;;;;28.70;19.38;;;-1.70;99.90;;;;;;4985659;28;20045;-77
2023/03/01 00:34:56;;;;;;;30.33;19.75;;;-1.70;99.90;;;;;;4985340;28;20072;-77
2023/03/01 00:37:23;;;;;;;29.17;18.95;;;-1.70;99.90;;;;;;4988353;28;20137;-77
2023/03/01 00:39:49;;;;;;;29.67;19.13;;;-1.70;99.90;;;;;;4988799;28;20093;-77
2023/03/01 00:42:15;;;;;;;28.85;18.75;;;-1.70;99.90;;;;;;4984289;28;20050;-77
2023/03/01 00:44:40;;;;;;;27.02;18.48;;;-1.80;99.90;;;;;;4983574;28;20172;-77
2023/03/01 00:47:06;;;;;;;27.45;18.58;;;-1.70;99.90;;;;;;4987148;28;20054;-77
2023/03/01 00:49:31;;;;;;;29.20;19.00;;;-1.80;99.90;;;;;;4986152;28;20069;-77
2023/03/01 00:51:57;;;;;;;28.75;18.45;;;-1.70;99.90;;;;;;4971424;28;20046;-77
2023/03/01 00:54:23;;;;;;;28.08;18.90;;;-1.80;99.90;;;;;;4987335;28;20089;-77
2023/03/01 00:56:48;;;;;;;29.23;18.83;;;-1.80;99.90;;;;;;4987036;28;20622;-77
2023/03/01 00:59:14;;;;;;;43.55;19.33;;;-1.80;99.90;;;;;;4988035;28;20445;-77
2023/03/01 01:01:40;;;;;;;97.00;21.02;;;-1.70;99.90;;;;;;4985018;28;20057;-78
2023/03/01 01:04:10;;;;;;;52.17;19.75;;;-1.70;99.90;;;;;;4985555;28;20124;-78
2023/03/01 01:06:46;;;;;;;101.85;23.02;;;-1.60;99.90;;;;;;4982182;28;20108;-78
2023/03/01 01:09:16;;;;;;;71.70;22.05;;;-1.60;99.90;;;;;;4987122;28;20038;-78
2023/03/01 01:11:44;;;;;;;124.55;22.75;;;-1.70;99.90;;;;;;4986375;28;20074;-77
2023/03/01 01:14:10;;;;;;;78.05;20.23;;;-1.60;99.90;;;;;;4983198;28;20501;-78
2023/03/01 01:16:35;;;;;;;67.70;18.67;;;-1.70;99.90;;;;;;4969994;28;20132;-78
2023/03/01 01:19:01;;;;;;;51.13;19.42;;;-1.70;99.90;;;;;;4986908;28;20104;-77
2023/03/01 01:21:27;;;;;;;57.38;19.40;;;-1.70;99.90;;;;;;4969538;28;20042;-77
2023/03/01 01:23:54;;;;;;;58.58;19.33;;;-1.70;99.90;;;;;;4984532;28;20214;-77
2023/03/01 01:26:28;;;;;;;51.17;17.90;;;-1.70;99.90;;;;;;4985862;28;20552;-77
2023/03/01 01:28:55;;;;;;;45.00;16.45;;;-1.70;99.90;;;;;;4985931;28;20050;-77
2023/03/01 01:31:23;;;;;;;50.72;17.70;;;-1.80;99.90;;;;;;4969500;28;20092;-77
2023/03/01 01:33:50;;;;;;;44.97;16.42;;;-1.80;99.90;;;;;;4983291;28;20061;-77
2023/03/01 01:36:16;;;;;;;32.20;18.35;;;-1.90;99.90;;;;;;4986024;28;20460;-78
2023/03/01 01:38:42;;;;;;;29.73;16.75;;;-1.90;99.90;;;;;;4986303;28;20054;-77
2023/03/01 01:41:11;;;;;;;25.25;15.88;;;-1.90;99.90;;;;;;4985035;28;20046;-77
2023/03/01 01:43:46;;;;;;;27.35;15.50;;;-1.90;99.90;;;;;;4977765;28;20499;-77
2023/03/01 01:46:20;;;;;;;27.98;16.15;;;-2.00;99.90;;;;;;4982755;28;20081;-77
2023/03/01 01:48:55;;;;;;;23.92;14.98;;;-2.00;99.90;;;;;;4982613;28;20078;-77
2023/03/01 01:51:25;;;;;;;23.38;15.38;;;-2.00;99.90;;;;;;4968543;28;20149;-77
2023/03/01 01:53:57;;;;;;;19.90;14.00;;;-2.00;99.90;;;;;;4985134;28;20054;-77
2023/03/01 01:56:24;;;;;;;26.63;14.98;;;-2.10;99.90;;;;;;4984770;28;20060;-77
2023/03/01 01:58:50;;;;;;;19.88;13.45;;;-2.10;99.90;;;;;;4985898;28;20060;-77
2023/03/01 02:01:16;;;;;;;20.27;13.73;;;-2.10;99.90;;;;;;4984675;28;20046;-77
2023/03/01 02:03:43;;;;;;;19.85;14.30;;;-2.00;99.90;;;;;;4986686;28;20039;-77
2023/03/01 02:06:28;;;;;;;22.02;15.02;;;-2.10;99.90;;;;;;4969369;28;20148;-77
2023/03/01 02:08:59;;;;;;;22.02;15.77;;;-2.10;99.90;;;;;;4985696;28;20441;-77
2023/03/01 02:11:25;;;;;;;20.23;13.75;;;-2.20;99.90;;;;;;4982522;28;20050;-77
2023/03/01 02:13:53;;;;;;;21.05;14.25;;;-2.20;99.90;;;;;;4981388;28;20057;-77
2023/03/01 02:16:19;;;;;;;19.65;14.07;;;-2.20;99.90;;;;;;4983994;28;20046;-77
2023/03/01 02:18:46;;;;;;;23.92;15.18;;;-2.30;99.90;;;;;;4985289;28;20065;-77
2023/03/01 02:21:22;;;;;;;22.83;14.82;;;-2.30;99.90;;;;;;4984362;28;20039;-77
2023/03/01 02:23:47;;;;;;;24.27;15.07;;;-2.20;99.90;;;;;;4986638;28;20043;-77
2023/03/01 02:26:37;;;;;;;25.38;15.73;;;-2.30;99.90;;;;;;4984336;28;20077;-77
2023/03/01 02:29:05;;;;;;;24.65;14.38;;;-2.30;99.90;;;;;;4986083;28;20413;-77
2023/03/01 02:31:43;;;;;;;20.95;14.23;;;-2.40;99.90;;;;;;4987587;28;20053;-77
2023/03/01 02:34:21;;;;;;;22.40;14.40;;;-2.40;99.90;;;;;;4984869;28;20405;-77
2023/03/01 02:36:50;;;;;;;20.73;14.13;;;-2.40;99.90;;;;;;4973151;28;20058;-77
2023/03/01 02:39:26;;;;;;;25.85;16.02;;;-2.40;99.90;;;;;;4986349;28;20069;-77
2023/03/01 02:41:54;;;;;;;24.75;15.55;;;-2.40;99.90;;;;;;4984280;28;20058;-77
2023/03/01 02:44:20;;;;;;;23.13;15.57;;;-2.40;99.90;;;;;;4985133;28;20053;-78
2023/03/01 02:46:49;;;;;;;22.35;14.82;;;-1.70;99.90;;;;;;4980200;28;20098;-77
2023/03/01 02:49:27;;;;;;;22.80;15.40;;;-2.50;99.90;;;;;;4984604;28;20046;-78
2023/03/01 02:52:17;;;;;;;25.63;16.20;;;-2.50;99.90;;;;;;4984227;28;20052;-77
2023/03/01 02:54:49;;;;;;;23.13;14.85;;;-2.50;99.90;;;;;;4992195;28;20050;-77
2023/03/01 02:57:15;;;;;;;21.50;14.10;;;-2.60;99.90;;;;;;4974956;28;20133;-77
2023/03/01 02:59:42;;;;;;;22.25;14.00;;;-2.60;99.90;;;;;;4985942;28;20050;-77
2023/03/01 03:02:35;;;;;;;22.17;15.48;;;-2.60;99.90;;;;;;4982702;28;20050;-77
2023/03/01 03:05:15;;;;;;;21.85;14.52;;;-2.60;99.90;;;;;;4986208;28;20421;-77
2023/03/01 03:07:46;;;;;;;21.63;14.90;;;-2.70;99.90;;;;;;4976380;28;20400;-77
2023/03/01 03:10:16;;;;;;;21.58;14.10;;;-2.70;99.90;;;;;;4986545;28;20374;-77
2023/03/01 03:12:42;;;;;;;23.23;15.15;;;-2.70;99.90;;;;;;4981815;28;20066;-77
2023/03/01 03:15:12;;;;;;;24.17;14.50;;;-2.80;99.90;;;;;;4982169;28;20113;-77
2023/03/01 03:17:42;;;;;;;23.00;15.60;;;-2.70;99.90;;;;;;4974785;28;20812;-77
2023/03/01 03:20:19;;;;;;;21.95;14.77;;;-2.80;99.90;;;;;;4978394;28;20046;-77
2023/03/01 03:22:46;;;;;;;22.33;14.77;;;-2.80;99.90;;;;;;4988165;28;20046;-77
2023/03/01 03:25:15;;;;;;;23.58;14.90;;;-2.80;99.90;;;;;;4990437;28;20108;-77
2023/03/01 03:27:48;;;;;;;27.33;15.18;;;-2.80;99.90;;;;;;4988597;28;20507;-77
2023/03/01 03:30:19;;;;;;;23.00;15.05;;;-2.50;99.90;;;;;;4990406;28;20097;-77
2023/03/01 03:32:53;;;;;;;21.92;15.23;;;-2.90;99.90;;;;;;4988500;28;20046;-77
2023/03/01 03:35:28;;;;;;;25.58;15.25;;;-2.90;99.90;;;;;;4991055;28;20058;-77
2023/03/01 03:38:03;;;;;;;24.83;15.13;;;-2.90;99.90;;;;;;4987918;28;20070;-77
2023/03/01 03:40:32;;;;;;;23.20;14.50;;;-2.00;99.90;;;;;;4989953;28;20669;-77
2023/03/01 03:42:57;;;;;;;20.52;14.40;;;-2.90;99.90;;;;;;4984376;28;20050;-77
2023/03/01 03:45:23;;;;;;;22.77;14.50;;;-3.00;99.90;;;;;;4979313;28;20817;-77
2023/03/01 03:47:48;;;;;;;24.15;15.75;;;-3.00;99.90;;;;;;4987531;28;20141;-77
2023/03/01 03:50:16;;;;;;;24.35;16.30;;;-3.00;99.90;;;;;;4984860;28;20051;-77
2023/03/01 03:52:42;;;;;;;23.45;15.52;;;-3.00;99.90;;;;;;4983884;28;20520;-77
2023/03/01 03:55:09;;;;;;;22.88;14.60;;;-3.00;99.90;;;;;;4988197;28;20043;-77
2023/03/01 03:57:36;;;;;;;22.67;14.50;;;-3.00;99.90;;;;;;4988206;28;20500;-77
2023/03/01 04:00:04;;;;;;;23.38;14.65;;;-3.00;99.90;;;;;;4987333;28;20050;-77
2023/03/01 04:02:30;;;;;;;22.77;14.95;;;-3.10;99.90;;;;;;4985585;28;20165;-77
2023/03/01 04:04:55;;;;;;;22.48;14.95;;;-3.10;99.90;;;;;;4986213;28;20046;-76
2023/03/01 04:07:21;;;;;;;22.20;15.13;;;-3.10;99.90;;;;;;4987910;28;20050;-77
2023/03/01 04:09:47;;;;;;;24.17;16.02;;;-3.10;99.90;;;;;;4989611;28;20438;-77
2023/03/01 04:12:12;;;;;;;22.83;15.30;;;-3.10;99.90;;;;;;4984495;28;20085;-77
2023/03/01 04:14:38;;;;;;;21.85;14.73;;;-3.20;99.90;;;;;;4985816;28;20396;-77
2023/03/01 04:17:05;;;;;;;22.48;16.58;;;-3.20;99.90;;;;;;4983520;28;20060;-77
2023/03/01 04:19:35;;;;;;;21.48;15.60;;;-3.20;99.90;;;;;;4988643;28;20054;-78
2023/03/01 04:22:09;;;;;;;19.65;13.95;;;-3.20;99.90;;;;;;4985552;28;20582;-77
2023/03/01 04:24:35;;;;;;;21.20;14.52;;;-3.20;99.90;;;;;;4988344;28;20050;-77
2023/03/01 04:27:01;;;;;;;21.25;14.38;;;-3.20;99.90;;;;;;4988662;28;20046;-77
2023/03/01 04:29:26;;;;;;;23.55;14.75;;;-3.20;99.90;;;;;;4989163;28;20117;-77
2023/03/01 04:31:52;;;;;;;21.92;14.68;;;-2.50;99.90;;;;;;4988653;28;20125;-77
2023/03/01 04:34:18;;;;;;;22.20;14.38;;;-3.20;99.90;;;;;;4968792;28;20061;-77
2023/03/01 04:36:44;;;;;;;23.02;15.07;;;-3.20;99.90;;;;;;4987553;28;20049;-77
2023/03/01 04:39:12;;;;;;;22.50;14.23;;;-3.20;99.90;;;;;;4989988;28;20050;-77
2023/03/01 04:41:39;;;;;;;22.00;13.88;;;-3.20;99.90;;;;;;4987372;28;20047;-77
2023/03/01 04:44:05;;;;;;;21.42;13.57;;;-3.20;99.90;;;;;;4980874;28;20212;-77
2023/03/01 04:46:31;;;;;;;21.70;14.15;;;-3.20;99.90;;;;;;4986374;28;20081;-77
2023/03/01 04:48:57;;;;;;;23.23;14.43;;;-3.20;99.90;;;;;;4987845;28;20074;-77
2023/03/01 04:51:22;;;;;;;22.83;14.52;;;-3.20;99.90;;;;;;4986883;28;20397;-77
2023/03/01 04:53:48;;;;;;;20.20;13.50;;;-3.30;99.90;;;;;;4984673;28;20066;-77
2023/03/01 04:56:14;;;;;;;20.10;13.43;;;-3.30;99.90;;;;;;4986566;28;20578;-77
2023/03/01 04:58:40;;;;;;;19.88;12.82;;;-3.20;99.90;;;;;;4985811;28;20042;-77
2023/03/01 05:01:14;;;;;;;20.98;13.65;;;-3.30;99.90;;;;;;4988613;28;20046;-77
2023/03/01 05:03:41;;;;;;;20.50;14.15;;;-3.30;99.90;;;;;;4985919;28;20068;-77
2023/03/01 05:06:07;;;;;;;22.30;14.15;;;-3.30;99.90;;;;;;4985769;28;20505;-77
2023/03/01 05:08:34;;;;;;;26.23;14.27;;;-3.30;99.90;;;;;;4986381;28;20049;-77
2023/03/01 05:10:59;;;;;;;20.92;13.68;;;-3.40;99.90;;;;;;4985998;28;20481;-77
2023/03/01 05:13:26;;;;;;;19.90;13.50;;;-3.40;99.90;;;;;;4984025;28;20039;-77
2023/03/01 05:16:00;;;;;;;20.77;13.23;;;-3.40;99.90;;;;;;4983966;28;20049;-77
2023/03/01 05:18:27;;;;;;;20.02;13.77;;;-3.40;99.90;;;;;;4985827;28;20050;-76
2023/03/01 05:21:03;;;;;;;18.55;12.63;;;-3.40;99.90;;;;;;4989669;28;20156;-77
2023/03/01 05:23:33;;;;;;;19.65;13.13;;;-3.40;99.90;;;;;;4966886;28;20054;-77
2023/03/01 05:26:00;;;;;;;18.02;13.13;;;-2.90;99.90;;;;;;4985661;28;20068;-77
2023/03/01 05:28:26;;;;;;;24.02;13.85;;;-3.40;99.90;;;;;;4968537;28;20405;-77
2023/03/01 05:30:52;;;;;;;19.00;13.45;;;-3.50;99.90;;;;;;4989739;28;20064;-77
2023/03/01 05:33:18;;;;;;;22.77;13.93;;;-3.50;99.90;;;;;;4987783;28;20165;-78
2023/03/01 05:35:45;;;;;;;20.10;14.45;;;-3.50;99.90;;;;;;4986718;28;20062;-77
2023/03/01 05:38:15;;;;;;;22.15;12.85;;;-3.50;99.90;;;;;;4987580;28;20050;-77
2023/03/01 05:40:43;;;;;;;21.23;13.40;;;-3.50;99.90;;;;;;4986366;28;20050;-77
2023/03/01 05:43:09;;;;;;;19.50;12.98;;;-3.50;99.90;;;;;;4982730;28;20125;-77
2023/03/01 05:45:36;;;;;;;19.73;14.07;;;-3.50;99.90;;;;;;4978380;28;20134;-77
2023/03/01 05:48:02;;;;;;;21.70;14.77;;;-3.50;99.90;;;;;;4986668;28;20160;-77
2023/03/01 05:50:29;;;;;;;19.40;13.57;;;-3.50;99.90;;;;;;4969940;28;20077;-77
2023/03/01 05:52:59;;;;;;;20.70;12.90;;;-3.50;99.90;;;;;;4980743;28;20042;-77
2023/03/01 05:55:25;;;;;;;17.83;11.73;;;-3.50;99.90;;;;;;4985653;28;20555;-77
2023/03/01 05:57:50;;;;;;;18.95;12.95;;;-3.50;99.90;;;;;;4988921;28;20046;-77
2023/03/01 06:00:18;;;;;;;20.77;13.35;;;-3.60;99.90;;;;;;4984991;28;20082;-77
2023/03/01 06:02:44;;;;;;;23.63;14.75;;;-3.50;99.90;;;;;;4985963;28;20460;-77
2023/03/01 06:05:11;;;;;;;20.92;13.50;;;-3.60;99.90;;;;;;4986373;28;20054;-77
2023/03/01 06:07:37;;;;;;;19.35;13.45;;;-3.60;99.90;;;;;;4985671;28;20054;-77
2023/03/01 06:10:04;;;;;;;20.35;13.50;;;-3.60;99.90;;;;;;4970837;28;20370;-77
2023/03/01 06:12:32;;;;;;;21.73;13.35;;;-3.60;99.90;;;;;;4985525;28;20877;-77
2023/03/01 06:14:58;;;;;;;21.42;14.10;;;-3.60;99.90;;;;;;4984999;28;20038;-77
2023/03/01 06:17:24;;;;;;;22.05;14.20;;;-3.60;99.90;;;;;;4983757;28;20441;-77
2023/03/01 06:19:50;;;;;;;21.40;13.60;;;-3.60;99.90;;;;;;4982295;28;20058;-77
2023/03/01 06:22:16;;;;;;;21.20;13.07;;;-3.60;99.90;;;;;;4974392;28;20461;-77
2023/03/01 06:24:42;;;;;;;20.15;13.68;;;-3.60;99.90;;;;;;4984603;28;20069;-77
2023/03/01 06:27:11;;;;;;;21.55;14.40;;;-3.60;99.90;;;;;;4985423;28;20054;-77
2023/03/01 06:29:36;;;;;;;20.35;13.93;;;-3.60;99.90;;;;;;4983680;28;20069;-78
2023/03/01 06:32:03;;;;;;;20.40;14.05;;;-3.60;99.90;;;;;;4986193;28;20080;-78
2023/03/01 06:34:32;;;;;;;23.42;14.75;;;-3.60;99.90;;;;;;4981936;28;20382;-78
2023/03/01 06:36:57;;;;;;;21.02;14.02;;;-3.60;99.90;;;;;;4986893;28;20050;-77
2023/03/01 06:39:23;;;;;;;25.13;14.65;;;-3.50;99.90;;;;;;4987336;28;20051;-78
2023/03/01 06:41:48;;;;;;;20.33;13.65;;;-3.50;99.90;;;;;;4986057;28;20058;-78
2023/03/01 06:44:14;;;;;;;20.42;14.10;;;-3.50;99.90;;;;;;4986446;28;20394;-78
2023/03/01 06:46:40;;;;;;;20.25;14.05;;;-3.50;99.90;;;;;;4985101;28;20043;-78
2023/03/01 06:49:09;;;;;;;21.40;14.40;;;-3.50;99.90;;;;;;4988304;28;20054;-78
2023/03/01 06:51:36;;;;;;;21.95;13.80;;;-3.50;99.90;;;;;;4985743;28;20432;-79
2023/03/01 06:54:03;;;;;;;23.83;14.63;;;-3.40;99.90;;;;;;4986768;28;20054;-79
2023/03/01 06:56:29;;;;;;;21.48;14.40;;;-3.40;99.90;;;;;;4991099;28;20575;-80
2023/03/01 06:58:55;;;;;;;23.55;14.68;;;-3.40;99.90;;;;;;4989455;28;20052;-79
2023/03/01 07:01:20;;;;;;;22.30;15.27;;;-3.30;99.90;;;;;;4991316;28;20076;-79
2023/03/01 07:03:46;;;;;;;23.98;13.90;;;-3.30;99.90;;;;;;4991766;28;20082;-78
2023/03/01 07:06:12;;;;;;;23.70;14.93;;;-3.30;99.90;;;;;;4974909;28;20086;-79
2023/03/01 07:08:37;;;;;;;20.38;14.77;;;-3.10;99.90;;;;;;4988341;28;20064;-79
2023/03/01 07:11:03;;;;;;;24.02;15.32;;;-3.10;99.90;;;;;;4988160;28;20081;-78
2023/03/01 07:13:29;;;;;;;21.88;13.93;;;-3.00;99.90;;;;;;4979185;28;20498;-78
2023/03/01 07:15:55;;;;;;;22.55;15.30;;;-2.90;99.90;;;;;;4990560;28;20046;-79
2023/03/01 07:18:21;;;;;;;21.80;14.50;;;-2.90;99.90;;;;;;4991182;28;20038;-79
2023/03/01 07:20:46;;;;;;;23.48;15.73;;;-2.80;99.90;;;;;;4987213;28;20107;-79
2023/03/01 07:23:12;;;;;;;21.58;13.60;;;-2.70;99.90;;;;;;4988037;28;20049;-79
2023/03/01 07:25:39;;;;;;;20.83;14.25;;;-2.70;99.90;;;;;;4989181;28;20146;-79
2023/03/01 07:28:04;;;;;;;21.70;15.55;;;-2.60;99.90;;;;;;4980614;28;20138;-79
2023/03/01 07:30:30;;;;;;;23.50;16.02;;;-2.50;99.90;;;;;;4971169;28;20133;-78
2023/03/01 07:32:57;;;;;;;25.23;15.77;;;-2.40;99.90;;;;;;4970496;28;20061;-78
2023/03/01 07:35:25;;;;;;;22.38;14.00;;;-2.40;99.90;;;;;;4979575;28;20059;-79
2023/03/01 07:37:50;;;;;;;23.48;16.45;;;-2.30;99.90;;;;;;4988440;28;20500;-79
2023/03/01 07:40:16;;;;;;;23.25;15.82;;;-2.20;99.90;;;;;;4991739;28;20042;-78
2023/03/01 07:42:42;;;;;;;27.00;17.52;;;-2.10;99.90;;;;;;4991691;28;20054;-78
2023/03/01 07:45:08;;;;;;;23.30;15.05;;;-2.00;99.90;;;;;;4990207;28;20173;-78
2023/03/01 07:47:34;;;;;;;25.45;16.67;;;-1.90;99.90;;;;;;4989591;28;20081;-79
2023/03/01 07:50:00;;;;;;;24.73;16.33;;;-1.80;99.90;;;;;;4991356;28;20051;-78
2023/03/01 07:52:26;;;;;;;28.85;17.27;;;-1.70;99.90;;;;;;4987769;28;20031;-78
2023/03/01 07:54:52;;;;;;;27.23;17.17;;;-1.60;99.90;;;;;;4972801;28;20835;-79
2023/03/01 07:57:18;;;;;;;26.17;17.05;;;-1.50;99.90;;;;;;4988122;28;20042;-79
2023/03/01 07:59:43;;;;;;;28.67;18.70;;;-1.40;99.90;;;;;;4991018;28;20078;-79
2023/03/01 08:02:10;;;;;;;26.33;15.48;;;-1.20;99.90;;;;;;4989733;28;20050;-79
2023/03/01 08:04:36;;;;;;;30.13;19.10;;;-1.10;99.90;;;;;;4990001;28;20473;-79
2023/03/01 08:07:04;;;;;;;30.80;19.88;;;-1.00;99.90;;;;;;4990847;28;20097;-79
2023/03/01 08:09:29;;;;;;;32.78;18.52;;;-0.80;99.90;;;;;;4988999;28;20101;-79
2023/03/01 08:11:59;;;;;;;34.33;20.98;;;-0.70;99.90;;;;;;4973195;28;20046;-79
2023/03/01 08:14:25;;;;;;;36.80;22.08;;;-0.60;99.90;;;;;;4989356;28;20050;-80
2023/03/01 08:16:50;;;;;;;36.95;22.40;;;-0.40;99.90;;;;;;4990505;28;20043;-79
2023/03/01 08:19:16;;;;;;;42.65;23.85;;;-0.30;99.90;;;;;;4990199;28;20042;-79
2023/03/01 08:21:42;;;;;;;38.80;23.83;;;-0.20;99.90;;;;;;4988239;28;20520;-79
2023/03/01 08:24:09;;;;;;;42.97;24.25;;;0.00;99.90;;;;;;4990622;28;20038;-79
2023/03/01 08:26:36;;;;;;;38.75;23.80;;;0.20;99.90;;;;;;4990015;28;20385;-79
2023/03/01 08:29:03;;;;;;;41.28;24.73;;;0.40;99.90;;;;;;4972598;28;20508;-79
2023/03/01 08:31:32;;;;;;;37.20;23.95;;;0.50;99.90;;;;;;4988585;28;20042;-79
2023/03/01 08:34:00;;;;;;;41.20;24.50;;;0.60;99.90;;;;;;4989019;28;20058;-79
2023/03/01 08:36:35;;;;;;;40.55;24.40;;;0.80;99.90;;;;;;4989697;28;20153;-79
2023/03/01 08:39:01;;;;;;;40.05;24.85;;;0.90;99.90;;;;;;5005012;28;20057;-80
2023/03/01 08:41:27;;;;;;;41.78;24.13;;;1.10;99.90;;;;;;4990084;28;20046;-79
2023/03/01 08:43:58;;;;;;;38.58;23.80;;;1.20;99.90;;;;;;4989073;28;20042;-79
2023/03/01 08:46:27;;;;;;;36.45;22.52;;;1.40;99.90;;;;;;4989243;28;20452;-79
2023/03/01 08:48:53;;;;;;;35.45;23.30;;;1.50;99.90;;;;;;4989126;28;20149;-77
2023/03/01 08:51:20;;;;;;;35.33;22.20;;;1.60;99.90;;;;;;4972051;28;20066;-77
2023/03/01 08:53:46;;;;;;;36.63;24.13;;;2.10;99.90;;;;;;4990145;28;20053;-77
2023/03/01 08:56:13;;;;;;;34.22;21.30;;;1.90;99.90;;;;;;4970532;28;20058;-77
2023/03/01 08:58:39;;;;;;;33.92;22.02;;;2.10;99.90;;;;;;4988077;28;20058;-79
2023/03/01 09:01:09;;;;;;;36.70;22.58;;;2.20;99.90;;;;;;4989901;28;20054;-77
2023/03/01 09:03:35;;;;;;;33.63;19.85;;;2.30;99.90;;;;;;4987984;28;20089;-76
2023/03/01 09:06:03;;;;;;;32.40;20.42;;;2.40;99.90;;;;;;4982476;28;20082;-78
2023/03/01 09:08:29;;;;;;;30.30;20.63;;;2.50;99.90;;;;;;4980012;28;20050;-77
2023/03/01 09:10:55;;;;;;;30.60;20.70;;;3.60;99.90;;;;;;4979066;28;20082;-77
2023/03/01 09:13:20;;;;;;;32.88;19.80;;;2.80;99.90;;;;;;4981972;28;20077;-78
2023/03/01 09:15:46;;;;;;;30.92;20.17;;;2.90;99.90;;;;;;4988531;28;20116;-79
2023/03/01 09:18:11;;;;;;;31.42;19.77;;;3.00;99.90;;;;;;4987956;28;20050;-80
2023/03/01 09:20:37;;;;;;;30.98;19.88;;;3.10;99.90;;;;;;4987532;28;20042;-80
2023/03/01 09:23:03;;;;;;;30.67;19.58;;;3.20;99.90;;;;;;4986515;28;20053;-79
2023/03/01 09:25:28;;;;;;;30.85;19.17;;;3.30;99.90;;;;;;4990045;28;20137;-80
2023/03/01 09:27:54;;;;;;;25.98;17.63;;;3.50;99.90;;;;;;4988924;28;20050;-79
2023/03/01 09:30:22;;;;;;;31.15;17.50;;;3.50;99.90;;;;;;4990295;28;20505;-81
2023/03/01 09:32:48;;;;;;;24.95;14.90;;;3.70;99.90;;;;;;4987967;28;20169;-81
2023/03/01 09:35:13;;;;;;;21.73;14.73;;;3.80;99.90;;;;;;4987388;28;20137;-81
2023/03/01 09:37:42;;;;;;;21.38;14.68;;;4.20;99.90;;;;;;4986565;28;20055;-81
2023/03/01 09:40:17;;;;;;;25.35;15.57;;;4.00;99.90;;;;;;4986072;28;20054;-81
2023/03/01 09:43:15;;;;;;;24.13;15.45;;;4.20;99.90;;;;;;4988478;28;20050;-81
2023/03/01 09:45:45;;;;;;;18.38;11.65;;;4.30;99.90;;;;;;4986710;28;20128;-79
2023/03/01 09:48:22;;;;;;;15.57;11.48;;;4.40;99.90;;;;;;4970751;28;20057;-81
2023/03/01 09:50:48;;;;;;;17.05;11.98;;;4.50;99.90;;;;;;4969773;28;20057;-79
2023/03/01 09:53:17;;;;;;;15.38;10.32;;;4.60;99.90;;;;;;4985740;28;20058;-80
2023/03/01 09:55:44;;;;;;;14.88;9.73;;;4.70;99.90;;;;;;4985617;28;20121;-81
2023/03/01 09:58:39;;;;;;;13.05;8.70;;;4.70;99.90;;;;;;4969892;28;20049;-81
2023/03/01 10:01:46;;;;;;;16.90;10.13;;;4.90;99.90;;;;;;4969026;28;20125;-80
2023/03/01 10:04:40;;;;;;;15.32;10.40;;;5.00;99.90;;;;;;4971131;28;20061;-80
2023/03/01 10:07:27;;;;;;;16.02;10.88;;;5.00;99.90;;;;;;4987279;28;20137;-80
2023/03/01 10:09:52;;;;;;;16.80;10.10;;;5.20;99.90;;;;;;4984827;28;20050;-80
2023/03/01 10:12:23;;;;;;;13.75;9.23;;;5.20;99.90;;;;;;4980393;28;20524;-80
2023/03/01 10:15:10;;;;;;;11.48;8.30;;;5.60;99.90;;;;;;4987005;28;20471;-80
2023/03/01 10:17:46;;;;;;;11.40;8.40;;;5.40;99.90;;;;;;4986107;28;20046;-83
2023/03/01 10:20:19;;;;;;;13.60;9.65;;;5.40;99.90;;;;;;4967694;28;20047;-82
2023/03/01 10:22:50;;;;;;;11.27;8.70;;;5.40;99.90;;;;;;4967802;28;20058;-80
2023/03/01 10:25:43;;;;;;;11.60;8.27;;;5.50;99.90;;;;;;4976318;28;20058;-80
2023/03/01 10:28:24;;;;;;;;;;;5.50;99.90;;;;;;4988199;28;20058;-81
2023/03/01 10:30:50;;;;;;;10.07;6.55;;;5.50;99.90;;;;;;4969676;28;19926;-80
2023/03/01 10:33:27;;;;;;;8.02;5.75;;;5.60;99.90;;;;;;4980509;28;20050;-81
2023/03/01 10:35:53;;;;;;;8.55;6.35;;;5.70;99.90;;;;;;4974977;28;20140;-81
2023/03/01 10:38:23;;;;;;;10.00;6.50;;;5.80;99.90;;;;;;4974483;28;20613;-80
2023/03/01 10:41:05;;;;;;;8.40;5.70;;;5.70;99.90;;;;;;4990090;28;20042;-81
2023/03/01 10:43:48;;;;;;;9.43;6.07;;;5.80;99.90;;;;;;4983634;28;20097;-82
2023/03/01 10:46:33;;;;;;;8.90;6.40;;;6.00;99.90;;;;;;4959382;28;20054;-79
2023/03/01 10:49:15;;;;;;;9.15;6.97;;;6.10;99.90;;;;;;4988190;28;20050;-79
2023/03/01 10:51:42;;;;;;;12.45;7.80;;;6.40;99.90;;;;;;4991933;28;20153;-80
2023/03/01 10:54:22;;;;;;;11.85;7.35;;;6.30;99.90;;;;;;4989571;28;20054;-79
2023/03/01 10:57:02;;;;;;;8.73;6.45;;;6.30;99.90;;;;;;4991635;28;20100;-80
2023/03/01 10:59:32;;;;;;;10.40;7.43;;;6.30;99.90;;;;;;4989814;28;20756;-80
2023/03/01 11:02:09;;;;;;;8.68;6.63;;;6.30;99.90;;;;;;4990373;28;20049;-79
2023/03/01 11:04:35;;;;;;;8.35;6.53;;;6.40;99.90;;;;;;4990443;28;20058;-80
2023/03/01 11:07:02;;;;;;;9.05;6.70;;;6.40;99.90;;;;;;4988980;28;20049;-80
2023/03/01 11:09:38;;;;;;;7.85;5.88;;;6.50;99.90;;;;;;4990975;28;20038;-80
2023/03/01 11:12:13;;;;;;;8.63;6.03;;;6.50;99.90;;;;;;4968783;28;20129;-80
2023/03/01 11:14:50;;;;;;;8.13;5.30;;;6.60;99.90;;;;;;4985309;28;20034;-80
2023/03/01 11:17:38;;;;;;;8.10;5.75;;;6.70;99.90;;;;;;4979852;28;20054;-79
2023/03/01 11:20:23;;;;;;;7.72;5.50;;;6.80;99.90;;;;;;4981482;28;20132;-80
2023/03/01 11:23:09;;;;;;;5.57;4.80;;;6.80;99.90;;;;;;4990004;28;20811;-80
2023/03/01 11:25:59;;;;;;;6.18;4.93;;;6.70;99.90;;;;;;4990616;28;20038;-80
2023/03/01 11:28:28;;;;;;;7.28;4.70;;;6.70;91.50;;;;;;4984279;28;20069;-81
2023/03/01 11:30:59;;;;;;;8.38;5.00;;;6.70;99.90;;;;;;4987202;28;20081;-79
2023/03/01 11:33:37;;;;;;;7.53;4.78;;;6.70;99.90;;;;;;4973259;28;20916;-80
2023/03/01 11:36:17;;;;;;;5.97;4.70;;;6.70;99.90;;;;;;4972615;28;20108;-79
2023/03/01 11:38:43;;;;;;;7.68;4.72;;;6.70;99.90;;;;;;4973714;28;20137;-79
2023/03/01 11:41:25;;;;;;;7.78;5.43;;;6.80;99.90;;;;;;4988474;28;20130;-79
2023/03/01 11:44:04;;;;;;;7.68;5.47;;;6.90;99.90;;;;;;4985614;28;20054;-79
2023/03/01 11:46:33;;;;;;;9.75;5.43;;;6.90;99.90;;;;;;4990685;28;20050;-79
2023/03/01 11:49:20;;;;;;;6.82;5.32;;;7.00;99.90;;;;;;4989585;28;20055;-77
2023/03/01 11:52:07;;;;;;;7.95;5.82;;;7.00;99.90;;;;;;4989150;28;20501;-78
2023/03/01 11:54:45;;;;;;;7.97;5.78;;;7.00;99.90;;;;;;4989040;28;20054;-78
2023/03/01 11:57:20;;;;;;;10.45;6.35;;;7.10;99.90;;;;;;4991480;28;20105;-79
2023/03/01 12:00:06;;;;;;;8.90;6.22;;;7.20;99.90;;;;;;4989417;28;20132;-81
2023/03/01 12:02:54;;;;;;;7.32;6.10;;;7.20;99.90;;;;;;4971361;28;20081;-81
2023/03/01 12:06:03;;;;;;;10.63;6.80;;;7.20;99.90;;;;;;4987809;28;20057;-81
2023/03/01 12:08:42;;;;;;;11.75;7.38;;;7.10;99.90;;;;;;4955882;28;20429;-81
2023/03/01 12:11:14;;;;;;;11.10;7.78;;;7.10;99.90;;;;;;4982942;28;20112;-80
2023/03/01 12:14:02;;;;;;;10.82;8.02;;;7.10;94.10;;;;;;4990637;28;20096;-79
2023/03/01 12:16:59;;;;;;;10.82;7.97;;;7.10;99.90;;;;;;4989289;28;20046;-80
2023/03/01 12:19:30;;;;;;;10.13;7.85;;;7.20;98.90;;;;;;4989651;28;20050;-80
2023/03/01 12:22:28;;;;;;;13.15;8.63;;;7.30;99.90;;;;;;4989985;28;20054;-80
2023/03/01 12:25:12;;;;;;;10.73;8.45;;;7.30;99.90;;;;;;4990284;28;20096;-80
2023/03/01 12:27:53;;;;;;;10.82;8.23;;;7.20;99.90;;;;;;4989168;28;20053;-80
2023/03/01 12:30:34;;;;;;;11.50;8.43;;;7.30;99.90;;;;;;4988979;28;20056;-80
2023/03/01 12:33:38;;;;;;;10.85;8.10;;;7.20;99.90;;;;;;4972361;28;20076;-80
2023/03/01 12:36:19;;;;;;;10.40;7.90;;;7.30;99.90;;;;;;4989031;28;20416;-79
2023/03/01 12:39:13;;;;;;;10.65;7.82;;;7.40;99.90;;;;;;4972521;28;20402;-79
2023/03/01 12:42:01;;;;;;;10.18;7.38;;;7.40;99.90;;;;;;4988425;28;20125;-79
2023/03/01 12:44:47;;;;;;;9.70;6.95;;;7.40;99.90;;;;;;4988687;28;20156;-79
2023/03/01 12:47:32;;;;;;;10.57;7.70;;;7.40;99.90;;;;;;4986280;28;20516;-79
2023/03/01 12:50:10;;;;;;;9.77;7.93;;;7.40;99.90;;;;;;4987699;28;20042;-79